Time;durP1;ratioP1;P1;durP2;ratioP2;P2;SDS_P1;SDS_P2;PMS_P1;PMS_P2;Temp;Humidity;BMP_temperature;BMP_pressure;BME280_temperature;BME280_humidity;BME280_pressure;Samples;Min_cycle;Max_cycle;Signal;HPM_P1;HPM_P2
2022/07/03 00:01:31;;;;;;;3.72;3.22;;;;;;;15.85;100.00;101661.94;5047053;28;20524;-62
2022/07/03 00:03:56;;;;;;;3.15;2.90;;;;;;;15.80;100.00;101660.97;5046931;28;20070;-62
2022/07/03 00:06:22;;;;;;;3.28;2.63;;;;;;;15.77;100.00;101668.72;5046448;28;20025;-62
2022/07/03 00:08:48;;;;;;;4.93;2.50;;;;;;;15.69;100.00;101672.88;5045888;28;20025;-62
2022/07/03 00:11:13;;;;;;;4.15;2.80;;;;;;;15.64;100.00;101675.38;5046603;28;20028;-62
2022/07/03 00:13:39;;;;;;;3.17;2.78;;;;;;;15.55;100.00;101662.09;5047019;28;20029;-63
2022/07/03 00:16:04;;;;;;;4.75;2.90;;;;;;;15.48;100.00;101669.78;5046845;28;20031;-62
2022/07/03 00:18:29;;;;;;;3.65;3.25;;;;;;;15.45;100.00;101668.84;5046572;28;20465;-61
2022/07/03 00:21:03;;;;;;;5.30;3.15;;;;;;;15.41;100.00;101664.38;5046886;28;20070;-62
2022/07/03 00:23:29;;;;;;;4.55;3.40;;;;;;;15.36;100.00;101670.34;5046511;28;20391;-62
2022/07/03 00:25:58;;;;;;;4.68;3.90;;;;;;;15.32;100.00;101673.75;5046646;28;20105;-62
2022/07/03 00:28:24;;;;;;;6.10;5.45;;;;;;;15.32;100.00;101680.69;5046165;28;20045;-62
2022/07/03 00:30:51;;;;;;;4.78;3.90;;;;;;;15.31;100.00;101686.78;5046301;28;20017;-62
2022/07/03 00:33:18;;;;;;;5.28;4.75;;;;;;;15.29;100.00;101693.69;5046569;28;20108;-62
2022/07/03 00:35:46;;;;;;;5.95;5.35;;;;;;;15.28;100.00;101695.41;5046836;28;20032;-62
2022/07/03 00:38:12;;;;;;;6.18;5.18;;;;;;;15.33;100.00;101700.72;5050258;28;20479;-62
2022/07/03 00:40:38;;;;;;;7.25;4.90;;;;;;;15.38;100.00;101698.25;5050683;28;20546;-62
2022/07/03 00:43:04;;;;;;;6.95;4.97;;;;;;;15.41;100.00;101708.75;5050142;28;20117;-62
2022/07/03 00:45:34;;;;;;;5.53;4.93;;;;;;;15.42;100.00;101715.75;5049339;28;20108;-62
2022/07/03 00:47:59;;;;;;;6.28;5.47;;;;;;;15.39;100.00;101706.13;5050456;28;20108;-62
2022/07/03 00:50:33;;;;;;;5.00;4.57;;;;;;;15.33;100.00;101701.63;5049515;28;20049;-62
2022/07/03 00:53:00;;;;;;;4.22;3.92;;;;;;;15.27;100.00;101704.09;5049514;28;20438;-61
2022/07/03 00:55:26;;;;;;;5.45;4.78;;;;;;;15.26;100.00;101704.91;5049949;28;20029;-62
2022/07/03 00:57:54;;;;;;;11.60;5.53;;;;;;;15.20;100.00;101699.53;5050441;28;20042;-62
2022/07/03 01:00:20;;;;;;;7.03;4.25;;;;;;;15.17;100.00;101700.31;5049403;28;20248;-62
2022/07/03 01:03:06;;;;;;;8.82;4.68;;;;;;;15.10;100.00;101699.28;5049846;28;20133;-61
2022/07/03 01:05:42;;;;;;;6.93;5.03;;;;;;;15.09;100.00;101697.50;5049712;28;20032;-62
2022/07/03 01:08:16;;;;;;;4.68;4.25;;;;;;;15.05;100.00;101700.88;5050067;28;20024;-62
2022/07/03 01:11:12;;;;;;;6.28;4.88;;;;;;;14.97;100.00;101692.84;5049711;28;20370;-62
2022/07/03 01:14:03;;;;;;;5.38;4.50;;;;;;;14.91;100.00;101689.19;5049625;28;20559;-62
2022/07/03 01:16:45;;;;;;;4.47;4.05;;;;;;;14.84;100.00;101691.63;5047816;28;20025;-62
2022/07/03 01:19:13;;;;;;;5.57;5.07;;;;;;;14.85;100.00;101693.41;5049599;28;20025;-62
2022/07/03 01:21:49;;;;;;;6.45;4.85;;;;;;;14.83;100.00;101688.97;5049335;28;20025;-62
2022/07/03 01:24:39;;;;;;;7.18;4.93;;;;;;;14.79;100.00;101695.78;5049422;28;20095;-62
2022/07/03 01:27:10;;;;;;;5.05;4.60;;;;;;;14.77;100.00;101697.47;5049735;28;20498;-62
2022/07/03 01:29:51;;;;;;;7.30;5.00;;;;;;;14.74;100.00;101694.78;5048945;28;20078;-62
2022/07/03 01:32:17;;;;;;;7.32;4.75;;;;;;;14.73;100.00;101703.47;5049542;28;20460;-62
2022/07/03 01:34:48;;;;;;;8.15;5.05;;;;;;;14.74;100.00;101706.09;5049205;28;20167;-62
2022/07/03 01:37:16;;;;;;;5.40;4.90;;;;;;;14.79;100.00;101702.75;5049023;28;20047;-62
2022/07/03 01:39:44;;;;;;;4.53;4.13;;;;;;;14.79;100.00;101697.53;5048752;28;20029;-62
2022/07/03 01:42:10;;;;;;;5.35;4.50;;;;;;;14.77;100.00;101694.84;5049053;28;20518;-61
2022/07/03 01:44:39;;;;;;;6.40;4.30;;;;;;;14.73;100.00;101693.88;5048896;28;20056;-62
2022/07/03 01:47:05;;;;;;;5.03;4.60;;;;;;;14.69;100.00;101688.53;5048805;28;20108;-62
2022/07/03 01:49:32;;;;;;;5.00;4.55;;;;;;;14.63;100.00;101695.34;5049237;28;20104;-62
2022/07/03 01:51:58;;;;;;;6.47;4.93;;;;;;;14.59;100.00;101693.50;5049085;28;20090;-61
2022/07/03 01:54:25;;;;;;;5.75;4.55;;;;;;;14.55;100.00;101694.25;5048386;28;20028;-61
2022/07/03 01:56:51;;;;;;;5.40;4.90;;;;;;;14.53;100.00;101702.00;5049123;28;20111;-62
2022/07/03 01:59:16;;;;;;;7.30;4.75;;;;;;;14.52;100.00;101705.47;5048593;28;20127;-62
2022/07/03 02:02:08;;;;;;;6.28;4.57;;;;;;;14.49;100.00;101701.88;5048611;28;20037;-61
2022/07/03 02:04:53;;;;;;;5.65;4.45;;;;;;;14.40;100.00;101695.56;5048942;28;20491;-62
2022/07/03 02:07:30;;;;;;;4.80;4.30;;;;;;;14.38;100.00;101691.16;5048988;28;20091;-62
2022/07/03 02:10:05;;;;;;;4.60;4.20;;;;;;;14.38;100.00;101692.03;5048494;28;20468;-62
2022/07/03 02:12:38;;;;;;;4.72;4.32;;;;;;;14.37;100.00;101685.03;5048650;28;20539;-61
2022/07/03 02:15:06;;;;;;;5.13;4.70;;;;;;;14.35;100.00;101684.13;5048439;28;20548;-61
2022/07/03 02:17:38;;;;;;;5.68;4.45;;;;;;;14.33;100.00;101683.19;5048173;28;20025;-62
2022/07/03 02:20:09;;;;;;;6.03;4.80;;;;;;;14.28;100.00;101672.59;5048262;28;20082;-62
2022/07/03 02:22:36;;;;;;;5.30;4.25;;;;;;;14.25;100.00;101675.13;5048354;28;20468;-62
2022/07/03 02:25:18;;;;;;;5.00;4.40;;;;;;;14.21;100.00;101680.22;5048333;28;20120;-61
2022/07/03 02:27:50;;;;;;;5.82;4.50;;;;;;;14.16;100.00;101680.97;5048140;28;20588;-62
2022/07/03 02:30:16;;;;;;;4.93;4.53;;;;;;;14.12;100.00;101681.69;5047382;28;20476;-61
2022/07/03 02:32:50;;;;;;;5.00;4.57;;;;;;;14.10;100.00;101680.78;5048332;28;20044;-61
2022/07/03 02:35:26;;;;;;;6.75;5.35;;;;;;;14.07;100.00;101691.09;5047799;28;20032;-61
2022/07/03 02:38:09;;;;;;;5.28;4.78;;;;;;;14.07;100.00;101691.09;5048356;28;20035;-61
2022/07/03 02:40:58;;;;;;;5.05;4.65;;;;;;;14.07;100.00;101690.22;5047861;28;20027;-61
2022/07/03 02:44:00;;;;;;;5.72;5.03;;;;;;;14.04;100.00;101685.78;5041406;28;20116;-61
2022/07/03 02:46:49;;;;;;;6.18;4.40;;;;;;;14.01;100.00;101693.53;5047372;28;20035;-61
2022/07/03 02:49:48;;;;;;;7.97;5.55;;;;;;;14.00;100.00;101689.13;5047701;28;20044;-61
2022/07/03 02:52:32;;;;;;;6.72;5.30;;;;;;;13.95;100.00;101689.00;5047666;28;20334;-61
2022/07/03 02:55:05;;;;;;;7.47;4.93;;;;;;;13.90;100.00;101690.56;5048064;28;20078;-61
2022/07/03 02:57:38;;;;;;;6.43;5.53;;;;;;;13.87;100.00;101687.88;5047703;28;20029;-61
2022/07/03 03:00:06;;;;;;;5.15;4.70;;;;;;;13.84;100.00;101686.03;5047308;28;20049;-62
2022/07/03 03:02:55;;;;;;;6.28;5.00;;;;;;;13.81;100.00;101683.34;5047536;28;20039;-61
2022/07/03 03:05:30;;;;;;;5.68;4.97;;;;;;;13.78;100.00;101683.25;5047918;28;20035;-61
2022/07/03 03:08:01;;;;;;;5.47;5.03;;;;;;;13.76;100.00;101674.50;5047168;28;20059;-61
2022/07/03 03:10:27;;;;;;;6.20;5.60;;;;;;;13.75;100.00;101675.31;5048554;28;20112;-62
2022/07/03 03:13:02;;;;;;;7.13;5.28;;;;;;;13.73;100.00;101680.50;5046865;28;20136;-61
2022/07/03 03:15:29;;;;;;;5.47;4.97;;;;;;;13.70;100.00;101685.59;5046175;28;20473;-61
2022/07/03 03:18:00;;;;;;;6.95;5.45;;;;;;;13.65;100.00;101690.66;5045328;28;20025;-61
2022/07/03 03:20:30;;;;;;;5.32;4.72;;;;;;;13.63;100.00;101694.94;5044827;28;20033;-60
2022/07/03 03:23:37;;;;;;;5.55;5.03;;;;;;;13.60;100.00;101694.81;5045225;28;20413;-61
2022/07/03 03:26:03;;;;;;;5.32;4.75;;;;;;;13.59;100.00;101697.38;5034267;28;20050;-61
2022/07/03 03:28:29;;;;;;;6.88;5.20;;;;;;;13.56;100.00;101688.63;5045018;28;20037;-61
2022/07/03 03:30:55;;;;;;;6.72;5.40;;;;;;;13.57;100.00;101694.72;5047407;28;20021;-61
2022/07/03 03:33:20;;;;;;;6.28;5.68;;;;;;;13.56;100.00;101700.78;5046258;28;20528;-60
2022/07/03 03:35:46;;;;;;;5.82;5.32;;;;;;;13.56;100.00;101700.78;5046582;28;20159;-61
2022/07/03 03:38:12;;;;;;;6.55;5.97;;;;;;;13.54;100.00;101700.72;5047475;28;20113;-61
2022/07/03 03:40:37;;;;;;;6.68;6.00;;;;;;;13.54;100.00;101699.84;5047147;28;20035;-62
2022/07/03 03:43:03;;;;;;;6.35;5.80;;;;;;;13.52;100.00;101706.69;5047770;28;20350;-61
2022/07/03 03:45:28;;;;;;;6.45;5.80;;;;;;;13.54;100.00;101705.03;5047498;28;20036;-60
2022/07/03 03:47:54;;;;;;;7.68;6.13;;;;;;;13.51;100.00;101705.78;5047446;28;20377;-61
2022/07/03 03:50:20;;;;;;;6.30;5.70;;;;;;;13.54;100.00;101710.25;5047012;28;20128;-61
2022/07/03 03:52:45;;;;;;;6.97;6.38;;;;;;;13.55;100.00;101706.81;5047542;28;20029;-61
2022/07/03 03:55:11;;;;;;;7.07;6.40;;;;;;;13.52;100.00;101711.88;5047454;28;20085;-61
2022/07/03 03:57:37;;;;;;;6.75;6.15;;;;;;;13.52;100.00;101698.88;5047042;28;20033;-61
2022/07/03 04:00:04;;;;;;;6.13;5.53;;;;;;;13.54;100.00;101705.03;5047173;28;20087;-61
2022/07/03 04:02:30;;;;;;;7.80;6.45;;;;;;;13.56;100.00;101706.00;5046518;28;20082;-61
2022/07/03 04:04:55;;;;;;;6.43;5.82;;;;;;;13.60;100.00;101699.16;5047424;28;20021;-60
2022/07/03 04:07:21;;;;;;;6.68;6.05;;;;;;;13.62;100.00;101693.16;5047270;28;20021;-62
2022/07/03 04:09:46;;;;;;;7.00;6.30;;;;;;;13.64;100.00;101709.72;5046571;28;20377;-61
2022/07/03 04:12:11;;;;;;;6.78;6.07;;;;;;;13.63;100.00;101702.75;5050626;28;20032;-61
2022/07/03 04:14:37;;;;;;;6.75;5.68;;;;;;;13.65;100.00;101703.66;5050431;28;20025;-61
2022/07/03 04:17:02;;;;;;;6.15;5.55;;;;;;;13.67;100.00;101701.13;5050687;28;20017;-61
2022/07/03 04:19:28;;;;;;;8.77;5.70;;;;;;;13.70;100.00;101701.22;5050872;28;20025;-61
2022/07/03 04:21:53;;;;;;;5.75;4.90;;;;;;;13.70;100.00;101706.44;5051139;28;20463;-60
2022/07/03 04:24:19;;;;;;;5.32;4.85;;;;;;;13.74;100.00;101707.44;5050750;28;20160;-62
2022/07/03 04:26:44;;;;;;;5.47;4.97;;;;;;;13.76;100.00;101705.75;5050505;28;20036;-62
2022/07/03 04:29:10;;;;;;;5.55;4.90;;;;;;;13.73;100.00;101710.84;5050360;28;20024;-61
2022/07/03 04:31:35;;;;;;;5.32;4.82;;;;;;;13.74;100.00;101712.63;5050546;28;20029;-62
2022/07/03 04:34:00;;;;;;;5.38;4.88;;;;;;;13.73;100.00;101710.84;5051024;28;20021;-61
2022/07/03 04:36:26;;;;;;;5.63;4.57;;;;;;;13.75;100.00;101719.59;5050623;28;20036;-61
2022/07/03 04:38:51;;;;;;;6.10;4.93;;;;;;;13.76;100.00;101718.78;5050721;28;20032;-62
2022/07/03 04:41:16;;;;;;;5.18;4.63;;;;;;;13.79;100.00;101718.88;5050282;28;20052;-61
2022/07/03 04:43:42;;;;;;;7.28;4.55;;;;;;;13.87;100.00;101713.94;5050249;28;20410;-61
2022/07/03 04:46:07;;;;;;;5.63;4.80;;;;;;;13.96;100.00;101726.38;5050304;28;20108;-61
2022/07/03 04:48:33;;;;;;;4.70;4.30;;;;;;;14.06;100.00;101720.59;5048891;28;20028;-62
2022/07/03 04:50:58;;;;;;;4.97;4.22;;;;;;;14.16;100.00;101722.66;5049772;28;20499;-61
2022/07/03 04:53:24;;;;;;;6.60;4.13;;;;;;;14.27;100.00;101729.91;5050208;28;20028;-62
2022/07/03 04:55:50;;;;;;;5.40;4.65;;;;;;;14.38;100.00;101732.84;5050378;28;20109;-61
2022/07/03 04:58:15;;;;;;;5.85;4.90;;;;;;;14.46;100.00;101725.28;5049638;28;20029;-62
2022/07/03 05:00:42;;;;;;;5.57;4.72;;;;;;;14.50;100.00;101716.69;5049401;28;20508;-60
2022/07/03 05:03:08;;;;;;;4.80;4.25;;;;;;;14.55;100.00;101720.34;5050283;28;20021;-61
2022/07/03 05:05:33;;;;;;;4.60;4.20;;;;;;;14.61;100.00;101720.50;5050253;28;20191;-61
2022/07/03 05:07:59;;;;;;;7.03;4.40;;;;;;;14.67;100.00;101726.75;5063905;28;20021;-60
2022/07/03 05:10:24;;;;;;;5.55;4.50;;;;;;;14.71;100.00;101726.00;5049786;28;20357;-61
2022/07/03 05:12:50;;;;;;;4.47;4.07;;;;;;;14.80;100.00;101721.06;5049935;28;20021;-61
2022/07/03 05:15:15;;;;;;;5.68;3.90;;;;;;;14.89;100.00;101718.72;5049395;28;20755;-61
2022/07/03 05:17:40;;;;;;;5.18;4.60;;;;;;;14.98;100.00;101725.94;5050156;28;20032;-61
2022/07/03 05:20:25;;;;;;;5.40;4.20;;;;;;;15.04;100.00;101722.59;5049449;28;20028;-62
2022/07/03 05:23:01;;;;;;;5.55;4.10;;;;;;;15.11;100.00;101726.28;5049922;28;20377;-61
2022/07/03 05:25:29;;;;;;;6.57;4.38;;;;;;;15.13;100.00;101730.69;5049140;28;20029;-61
2022/07/03 05:27:55;;;;;;;5.20;3.90;;;;;;;15.17;100.00;101735.97;5049764;28;20035;-61
2022/07/03 05:30:22;;;;;;;5.90;4.03;;;;;;;15.22;100.00;101731.75;5049687;28;20074;-61
2022/07/03 05:32:48;;;;;;;8.85;4.38;;;;;;;15.24;100.00;101727.47;5049764;28;20020;-62
2022/07/03 05:35:13;;;;;;;4.78;3.85;;;;;;;15.31;100.00;101724.19;5049344;28;20370;-62
2022/07/03 05:37:39;;;;;;;6.20;4.13;;;;;;;15.36;100.00;101733.03;5049060;28;20033;-61
2022/07/03 05:40:05;;;;;;;4.60;3.30;;;;;;;15.43;100.00;101738.41;5048871;28;20226;-62
2022/07/03 05:42:30;;;;;;;4.05;3.58;;;;;;;15.51;99.32;101744.72;5049558;28;20477;-61
2022/07/03 05:44:56;;;;;;;4.97;4.28;;;;;;;15.60;99.44;101746.69;5049299;28;20031;-61
2022/07/03 05:47:21;;;;;;;5.15;3.55;;;;;;;15.71;98.28;101739.13;5048884;28;20017;-61
2022/07/03 05:49:47;;;;;;;5.32;4.07;;;;;;;15.79;97.45;101741.94;5048863;28;20456;-61
2022/07/03 05:52:12;;;;;;;4.75;3.70;;;;;;;15.84;97.36;101746.44;5049205;28;20052;-61
2022/07/03 05:54:38;;;;;;;5.45;3.75;;;;;;;15.93;97.24;101744.88;5048708;28;20078;-62
2022/07/03 05:57:03;;;;;;;4.90;3.70;;;;;;;16.03;97.40;101746.88;5049103;28;20036;-62
2022/07/03 05:59:29;;;;;;;4.13;3.72;;;;;;;16.11;96.71;101744.47;5048772;28;20106;-62
2022/07/03 06:01:54;;;;;;;7.07;3.95;;;;;;;16.22;95.65;101741.22;5049220;28;20150;-60
2022/07/03 06:04:19;;;;;;;6.03;4.38;;;;;;;16.32;95.33;101741.44;5048314;28;20020;-61
2022/07/03 06:06:44;;;;;;;3.88;3.47;;;;;;;16.49;94.37;101746.19;5048795;28;20503;-61
2022/07/03 06:09:10;;;;;;;4.28;3.40;;;;;;;16.68;94.11;101749.19;5048505;28;20087;-62
2022/07/03 06:11:35;;;;;;;4.25;3.35;;;;;;;16.85;92.69;101751.28;5048350;28;20067;-62
2022/07/03 06:14:00;;;;;;;6.00;3.55;;;;;;;16.98;92.99;101750.66;5048790;28;20033;-61
2022/07/03 06:16:26;;;;;;;4.25;3.45;;;;;;;17.14;93.06;101743.16;5048340;28;20024;-61
2022/07/03 06:18:51;;;;;;;5.10;3.78;;;;;;;17.27;90.85;101755.59;5048105;28;20028;-61
2022/07/03 06:21:16;;;;;;;3.60;2.90;;;;;;;17.41;89.49;101757.63;5048360;28;20107;-61
2022/07/03 06:23:42;;;;;;;3.95;3.53;;;;;;;17.60;89.15;101761.44;5048471;28;20396;-62
2022/07/03 06:26:07;;;;;;;6.93;4.15;;;;;;;17.80;88.90;101757.38;5048405;28;20433;-62
2022/07/03 06:28:32;;;;;;;6.82;3.65;;;;;;;17.95;87.95;101755.00;5048152;28;20039;-61
2022/07/03 06:30:57;;;;;;;5.93;3.40;;;;;;;18.08;86.29;101758.69;5048512;28;20048;-61
2022/07/03 06:33:23;;;;;;;5.22;3.58;;;;;;;18.08;84.60;101757.84;5047495;28;20036;-62
2022/07/03 06:35:48;;;;;;;5.70;3.42;;;;;;;18.22;84.76;101760.69;5048033;28;20561;-61
2022/07/03 06:38:14;;;;;;;3.63;3.33;;;;;;;18.38;85.27;101761.78;5048282;28;20416;-62
2022/07/03 06:40:39;;;;;;;3.75;3.33;;;;;;;18.42;84.19;101758.31;5048242;28;20043;-61
2022/07/03 06:43:04;;;;;;;4.22;3.50;;;;;;;18.48;83.57;101757.53;5048465;28;20028;-62
2022/07/03 06:45:29;;;;;;;4.10;3.20;;;;;;;18.56;84.04;101755.03;5047984;28;20032;-62
2022/07/03 06:47:55;;;;;;;4.93;3.20;;;;;;;18.53;83.60;101755.00;5048092;28;20444;-61
2022/07/03 06:50:20;;;;;;;4.25;2.80;;;;;;;18.64;83.93;101753.38;5047318;28;20075;-62
2022/07/03 06:52:45;;;;;;;5.63;3.80;;;;;;;18.62;84.37;101749.84;5048590;28;20013;-62
2022/07/03 06:55:11;;;;;;;5.15;3.50;;;;;;;18.69;82.89;101751.69;5047998;28;20058;-61
2022/07/03 06:57:36;;;;;;;6.45;3.60;;;;;;;18.74;82.90;101757.00;5047693;28;20595;-62
2022/07/03 07:00:02;;;;;;;5.03;3.20;;;;;;;18.69;83.28;101753.44;5047534;28;20044;-62
2022/07/03 07:02:28;;;;;;;5.30;3.10;;;;;;;18.68;83.69;101757.81;5047721;28;20519;-62
2022/07/03 07:04:53;;;;;;;4.32;2.92;;;;;;;18.81;84.38;101760.59;5047395;28;20029;-61
2022/07/03 07:07:18;;;;;;;6.32;3.40;;;;;;;18.93;84.02;101755.47;5047407;28;20448;-60
2022/07/03 07:09:44;;;;;;;6.30;3.33;;;;;;;19.07;82.87;101758.25;5047789;28;20133;-60
2022/07/03 07:12:09;;;;;;;5.28;3.10;;;;;;;19.15;80.36;101754.88;5047966;28;20136;-62
2022/07/03 07:14:34;;;;;;;5.80;3.13;;;;;;;19.23;81.13;101752.31;5047518;28;20114;-61
2022/07/03 07:17:00;;;;;;;5.75;3.10;;;;;;;19.32;81.19;101758.53;5047323;28;20070;-62
2022/07/03 07:19:25;;;;;;;4.57;3.20;;;;;;;19.37;81.88;101761.22;5047559;28;20577;-61
2022/07/03 07:21:50;;;;;;;3.97;2.90;;;;;;;19.47;80.96;101758.66;5047610;28;20012;-61
2022/07/03 07:24:16;;;;;;;7.78;2.78;;;;;;;19.57;79.40;101757.91;5047645;28;20035;-60
2022/07/03 07:26:41;;;;;;;5.97;3.45;;;;;;;19.68;80.05;101760.59;5046787;28;20024;-61
2022/07/03 07:29:06;;;;;;;4.80;3.20;;;;;;;19.71;77.88;101754.50;5047140;28;20021;-62
2022/07/03 07:31:32;;;;;;;5.80;2.70;;;;;;;19.84;78.17;101758.97;5046838;28;20025;-61
2022/07/03 07:33:57;;;;;;;4.40;2.38;;;;;;;20.00;76.79;101767.88;5047068;28;20547;-62
2022/07/03 07:36:22;;;;;;;4.88;2.50;;;;;;;20.16;76.35;101768.88;5046530;28;20468;-61
2022/07/03 07:38:47;;;;;;;5.50;2.70;;;;;;;20.23;75.15;101771.56;5047083;28;20083;-60
2022/07/03 07:41:13;;;;;;;5.05;2.75;;;;;;;20.35;75.05;101776.91;5047102;28;20029;-62
2022/07/03 07:43:38;;;;;;;3.17;2.38;;;;;;;20.54;74.53;101779.66;5046591;28;20024;-61
2022/07/03 07:46:03;;;;;;;5.07;2.80;;;;;;;20.64;74.13;101776.19;5046842;28;20024;-62
2022/07/03 07:48:29;;;;;;;3.80;2.88;;;;;;;20.80;75.05;101776.25;5046317;28;20033;-61
2022/07/03 07:50:55;;;;;;;3.05;2.35;;;;;;;20.92;72.98;101775.41;5046924;28;20028;-62
2022/07/03 07:53:20;;;;;;;5.40;2.50;;;;;;;20.94;71.24;101767.53;5046934;28;20037;-61
2022/07/03 07:55:45;;;;;;;6.47;2.50;;;;;;;21.04;73.54;101769.34;5047434;28;20017;-62
2022/07/03 07:58:11;;;;;;;4.00;2.58;;;;;;;21.21;73.75;101760.56;5046633;28;20315;-62
2022/07/03 08:00:36;;;;;;;3.10;2.33;;;;;;;21.31;70.83;101770.28;5046834;28;20037;-62
2022/07/03 08:05:45;;;;;;;4.15;2.75;;;;;;;21.52;71.32;101776.44;5047423;28;20039;-61
2022/07/03 08:08:16;;;;;;;5.82;2.55;;;;;;;21.56;70.99;101778.22;5047175;28;20388;-61
2022/07/03 08:10:48;;;;;;;4.53;1.98;;;;;;;21.78;70.15;101786.13;5046201;28;20108;-62
2022/07/03 08:13:16;;;;;;;3.53;2.22;;;;;;;21.93;68.36;101781.75;5046805;28;20392;-62
2022/07/03 08:15:42;;;;;;;4.32;2.47;;;;;;;22.05;66.06;101776.50;5046852;28;20021;-62
2022/07/03 08:18:08;;;;;;;4.20;2.58;;;;;;;21.97;67.89;101780.88;5060286;28;20044;-62
2022/07/03 08:20:34;;;;;;;3.60;2.38;;;;;;;22.06;65.44;101778.22;5046888;28;20029;-62
2022/07/03 08:23:01;;;;;;;4.18;2.33;;;;;;;22.06;65.17;101778.22;5046906;28;20021;-61
2022/07/03 08:25:27;;;;;;;3.55;2.13;;;;;;;22.23;65.35;101779.09;5046870;28;20078;-62
2022/07/03 08:27:53;;;;;;;5.97;2.30;;;;;;;22.40;65.64;101777.28;5046897;28;20469;-60
2022/07/03 08:30:18;;;;;;;4.05;2.75;;;;;;;22.44;63.89;101770.22;5046856;28;20064;-61
2022/07/03 08:32:45;;;;;;;3.10;2.40;;;;;;;22.40;64.25;101776.38;5046994;28;20029;-62
2022/07/03 08:35:12;;;;;;;4.13;2.17;;;;;;;22.48;65.07;101774.63;5049883;28;20480;-62
2022/07/03 08:37:40;;;;;;;4.20;1.73;;;;;;;22.69;64.67;101769.28;5057754;28;20017;-61
2022/07/03 08:40:06;;;;;;;4.78;2.40;;;;;;;22.87;67.50;101771.84;5046534;28;20449;-62
2022/07/03 08:42:32;;;;;;;3.88;2.40;;;;;;;22.98;63.80;101771.78;5045099;28;20063;-62
2022/07/03 08:44:59;;;;;;;4.10;2.33;;;;;;;23.03;62.87;101770.00;5046809;28;20076;-62
2022/07/03 08:47:26;;;;;;;5.13;2.50;;;;;;;23.26;61.96;101773.41;5047012;28;20024;-62
2022/07/03 08:49:54;;;;;;;3.30;2.22;;;;;;;23.12;62.01;101765.53;5046160;28;20516;-62
2022/07/03 08:52:19;;;;;;;3.38;2.20;;;;;;;23.13;62.05;101764.66;5046624;28;20100;-62
2022/07/03 08:54:44;;;;;;;3.58;2.15;;;;;;;23.42;64.58;101774.19;5046646;28;20195;-62
2022/07/03 08:57:11;;;;;;;3.42;3.03;;;;;;;23.62;65.28;101770.50;5048098;28;20108;-62
2022/07/03 08:59:38;;;;;;;5.43;3.15;;;;;;;23.68;66.22;101770.47;5050225;28;20279;-62
2022/07/03 09:02:04;;;;;;;4.90;3.05;;;;;;;23.70;64.92;101771.34;5049658;28;20094;-61
2022/07/03 09:04:31;;;;;;;6.68;3.40;;;;;;;23.74;63.02;101762.47;5050415;28;20028;-61
2022/07/03 09:06:58;;;;;;;3.60;2.70;;;;;;;23.61;62.04;101761.72;5050223;28;20041;-62
2022/07/03 09:09:24;;;;;;;3.15;2.55;;;;;;;23.66;63.34;101764.31;5049713;28;20036;-62
2022/07/03 09:11:50;;;;;;;4.80;1.90;;;;;;;23.61;63.24;101771.41;5049968;28;20024;-62
2022/07/03 09:14:15;;;;;;;4.35;1.90;;;;;;;23.77;58.92;101765.97;5050153;28;20040;-61
2022/07/03 09:16:42;;;;;;;2.65;2.05;;;;;;;23.87;59.47;101765.00;5049992;28;20055;-62
2022/07/03 09:19:07;;;;;;;4.22;2.13;;;;;;;23.80;58.53;101760.66;5049583;28;20424;-61
2022/07/03 09:21:41;;;;;;;3.75;2.13;;;;;;;23.85;58.06;101766.78;5048818;28;20472;-62
2022/07/03 09:24:08;;;;;;;3.70;2.03;;;;;;;23.90;58.10;101764.97;5049935;28;20032;-62
2022/07/03 09:26:34;;;;;;;3.55;2.17;;;;;;;23.87;59.86;101765.00;5049279;28;20039;-62
2022/07/03 09:29:00;;;;;;;2.40;1.48;;;;;;;23.96;60.23;101772.00;5049728;28;20107;-62
2022/07/03 09:31:29;;;;;;;4.35;2.00;;;;;;;24.02;64.28;101771.91;5049546;28;20119;-62
2022/07/03 09:34:07;;;;;;;5.15;2.10;;;;;;;23.82;60.23;101778.28;5049424;28;20475;-62
2022/07/03 09:36:41;;;;;;;4.35;2.17;;;;;;;23.43;59.88;101773.31;5049210;28;20412;-62
2022/07/03 09:39:26;;;;;;;3.75;2.30;;;;;;;23.23;60.41;101776.94;5049679;28;20021;-62
2022/07/03 09:41:53;;;;;;;3.20;1.85;;;;;;;23.33;61.84;101779.53;5049625;28;20064;-60
2022/07/03 09:44:36;;;;;;;4.43;2.03;;;;;;;23.42;62.94;101790.06;5048947;28;20459;-62
2022/07/03 09:47:12;;;;;;;5.00;2.65;;;;;;;23.56;60.65;101786.44;5048850;28;20025;-62
2022/07/03 09:49:51;;;;;;;2.28;2.10;;;;;;;23.35;60.40;101789.19;5049043;28;20017;-63
2022/07/03 09:52:34;;;;;;;3.25;1.88;;;;;;;23.37;58.85;101797.09;5048415;28;20071;-62
2022/07/03 09:55:11;;;;;;;2.08;1.83;;;;;;;23.42;59.06;101790.06;5049445;28;20078;-62
2022/07/03 09:57:49;;;;;;;2.13;1.60;;;;;;;23.56;60.25;101789.06;5048424;28;20073;-62
2022/07/03 10:00:31;;;;;;;1.77;1.40;;;;;;;23.78;60.86;101786.25;5048813;28;20178;-63
2022/07/03 10:03:08;;;;;;;4.97;1.60;;;;;;;24.22;62.07;101779.69;5048732;28;20074;-62
2022/07/03 10:05:38;;;;;;;3.17;2.30;;;;;;;24.49;58.54;101784.69;5048884;28;20036;-63
2022/07/03 10:08:08;;;;;;;2.65;1.77;;;;;;;24.40;56.01;101792.72;5049045;28;20028;-62
2022/07/03 10:10:35;;;;;;;3.13;2.05;;;;;;;24.06;58.20;101784.22;5048726;28;20025;-62
2022/07/03 10:13:02;;;;;;;2.88;2.05;;;;;;;23.79;58.31;101793.28;5048497;28;20025;-62
2022/07/03 10:15:29;;;;;;;2.78;1.90;;;;;;;23.62;58.69;101791.66;5048632;28;20021;-62
2022/07/03 10:17:56;;;;;;;4.38;2.00;;;;;;;23.61;58.23;101792.56;5047950;28;20028;-62
2022/07/03 10:20:44;;;;;;;4.43;2.50;;;;;;;23.44;58.18;101785.63;5048728;28;20017;-62
2022/07/03 10:23:10;;;;;;;4.10;2.60;;;;;;;23.51;59.54;101787.34;5048360;28;20029;-62
2022/07/03 10:25:40;;;;;;;4.43;2.15;;;;;;;23.73;57.95;101788.94;5048656;28;20029;-63
2022/07/03 10:28:06;;;;;;;2.25;1.50;;;;;;;23.70;58.33;101795.13;5047935;28;20052;-62
2022/07/03 10:30:32;;;;;;;4.43;2.00;;;;;;;23.62;58.54;101791.66;5048654;28;20031;-61
2022/07/03 10:32:57;;;;;;;3.25;1.45;;;;;;;23.52;60.72;101793.50;5048484;28;20059;-62
2022/07/03 10:35:27;;;;;;;3.38;1.75;;;;;;;23.31;60.76;101791.88;5047918;28;20024;-62
2022/07/03 10:38:08;;;;;;;2.63;1.90;;;;;;;23.11;59.21;101795.50;5048587;28;20031;-62
2022/07/03 10:46:30;;;;;;;4.28;1.92;;;;;;;22.67;62.97;101806.25;5048541;28;20094;-61
2022/07/03 10:49:04;;;;;;;3.97;2.33;;;;;;;22.54;61.42;101805.41;5048156;28;20029;-61
2022/07/03 10:51:31;;;;;;;2.90;1.98;;;;;;;22.52;62.50;101807.19;5048047;28;20513;-62
2022/07/03 10:54:17;;;;;;;2.35;1.40;;;;;;;22.59;63.88;101797.47;5048126;28;20079;-62
2022/07/03 10:57:07;;;;;;;3.08;1.88;;;;;;;22.69;63.49;101809.78;5048110;28;20028;-62
2022/07/03 10:59:36;;;;;;;2.50;1.40;;;;;;;22.85;62.50;101805.31;5047089;28;20039;-62
2022/07/03 11:02:17;;;;;;;2.17;1.38;;;;;;;22.95;59.95;101800.00;5047932;28;20419;-62
2022/07/03 11:05:01;;;;;;;4.03;1.25;;;;;;;23.09;58.36;101795.53;5047620;28;20033;-62
2022/07/03 11:07:33;;;;;;;1.58;0.90;;;;;;;23.14;57.36;101806.94;5047474;28;20033;-62
2022/07/03 11:10:14;;;;;;;2.28;1.15;;;;;;;23.03;57.67;101803.47;5047617;28;20031;-63
2022/07/03 11:13:05;;;;;;;2.67;1.27;;;;;;;22.88;60.27;101800.00;5047453;28;20784;-62
2022/07/03 11:15:31;;;;;;;1.58;1.00;;;;;;;22.81;60.06;101806.19;5047798;28;20033;-62
2022/07/03 11:18:28;;;;;;;2.20;1.63;;;;;;;22.79;62.14;101793.00;5047762;28;20426;-63
2022/07/03 11:20:53;;;;;;;4.85;1.58;;;;;;;22.70;61.86;101795.72;5047715;28;20469;-63
2022/07/03 11:23:45;;;;;;;3.20;1.50;;;;;;;22.59;59.20;101792.19;5047019;28;20049;-62
2022/07/03 11:26:10;;;;;;;2.00;1.25;;;;;;;22.72;60.79;101793.06;5039315;28;20048;-62
2022/07/03 11:28:35;;;;;;;4.05;1.33;;;;;;;23.05;58.73;101779.66;5052344;28;20021;-63
2022/07/03 11:33:55;;;;;;;2.90;1.88;;;;;;;23.55;56.47;101776.75;5047887;28;20118;-62
2022/07/03 11:36:29;;;;;;;2.92;1.52;;;;;;;23.63;57.88;101782.84;5047518;28;20033;-62
2022/07/03 11:38:54;;;;;;;1.60;1.25;;;;;;;23.43;57.26;101775.94;5047700;28;20025;-62
2022/07/03 11:41:19;;;;;;;2.53;1.70;;;;;;;23.34;58.68;101768.03;5047269;28;20035;-62
2022/07/03 11:43:50;;;;;;;2.10;1.90;;;;;;;23.42;56.72;101773.31;5046977;28;20361;-62